Time;durP1;ratioP1;P1;durP2;ratioP2;P2;SDS_P1;SDS_P2;PMS_P1;PMS_P2;Temp;Humidity;BMP_temperature;BMP_pressure;BME280_temperature;BME280_humidity;BME280_pressure;Samples;Min_cycle;Max_cycle;Signal;HPM_P1;HPM_P2
2022/04/14 00:00:10;;;;;;;9.93;6.10;;;;;;;;;;5013913;28;20187;-78
2022/04/14 00:02:36;;;;;;;10.80;5.83;;;;;;;;;;5013010;28;20207;-77
2022/04/14 00:05:03;;;;;;;12.53;5.47;;;;;;;;;;5013246;28;20584;-77
2022/04/14 00:07:29;;;;;;;8.63;5.20;;;;;;;;;;5013098;28;20171;-77
2022/04/14 00:09:55;;;;;;;9.17;5.60;;;;;;;;;;5012212;28;20544;-77
2022/04/14 00:12:21;;;;;;;10.93;5.83;;;;;;;;;;4996611;28;20187;-77
2022/04/14 00:14:47;;;;;;;10.73;5.90;;;;;;;;;;4992891;28;20203;-76
2022/04/14 00:17:13;;;;;;;8.50;4.40;;;;;;;;;;4993303;28;20192;-77
2022/04/14 00:19:40;;;;;;;11.20;5.77;;;;;;;;;;5017263;28;20191;-77
2022/04/14 00:22:07;;;;;;;10.60;5.87;;;;;;;;;;5012761;28;20206;-77
2022/04/14 00:24:33;;;;;;;14.47;5.40;;;;;;;;;;5012878;28;20176;-76
2022/04/14 00:26:59;;;;;;;6.90;4.67;;;;;;;;;;5012851;28;20234;-77
2022/04/14 00:29:25;;;;;;;10.70;5.83;;;;;;;;;;5011479;28;20632;-78
2022/04/14 00:31:51;;;;;;;7.47;5.40;;;;;;;;;;5011449;28;20183;-78
2022/04/14 00:34:17;;;;;;;9.87;5.17;;;;;;;;;;5012578;28;20175;-77
2022/04/14 00:36:44;;;;;;;9.50;5.83;;;;;;;;;;5012916;28;20203;-76
2022/04/14 00:39:10;;;;;;;11.47;6.10;;;;;;;;;;5012949;28;20683;-77
2022/04/14 00:41:37;;;;;;;10.87;5.20;;;;;;;;;;5012558;28;20210;-77
2022/04/14 00:44:03;;;;;;;10.33;6.30;;;;;;;;;;5011533;28;20522;-77
2022/04/14 00:46:30;;;;;;;12.53;6.20;;;;;;;;;;5011806;28;20277;-77
2022/04/14 00:48:56;;;;;;;8.43;4.97;;;;;;;;;;5012330;28;20589;-77
2022/04/14 00:51:22;;;;;;;8.53;5.77;;;;;;;;;;5011260;28;20167;-77
2022/04/14 00:53:49;;;;;;;12.90;7.10;;;;;;;;;;5011385;28;20183;-77
2022/04/14 00:56:15;;;;;;;11.60;6.10;;;;;;;;;;5012509;28;20206;-77
2022/04/14 00:58:41;;;;;;;9.90;5.30;;;;;;;;;;5011345;28;20238;-77
2022/04/14 01:01:08;;;;;;;11.17;5.73;;;;;;;;;;5012342;28;20203;-77
2022/04/14 01:03:35;;;;;;;11.17;5.63;;;;;;;;;;5011795;28;20183;-77
2022/04/14 01:06:02;;;;;;;9.40;6.10;;;;;;;;;;5012215;28;20195;-77
2022/04/14 01:08:32;;;;;;;8.03;5.30;;;;;;;;;;5012028;28;20195;-77
2022/04/14 01:10:59;;;;;;;8.90;5.77;;;;;;;;;;5009826;28;20261;-77
2022/04/14 01:13:25;;;;;;;7.40;5.33;;;;;;;;;;5004584;28;20266;-77
2022/04/14 01:15:57;;;;;;;9.40;5.73;;;;;;;;;;5011178;28;20210;-76
2022/04/14 01:18:23;;;;;;;9.47;6.03;;;;;;;;;;5010286;28;20559;-76
2022/04/14 01:20:49;;;;;;;12.27;5.70;;;;;;;;;;5003650;28;20199;-76
2022/04/14 01:23:18;;;;;;;9.37;5.60;;;;;;;;;;5010818;28;20183;-77
2022/04/14 01:25:44;;;;;;;12.03;5.30;;;;;;;;;;5011447;28;20202;-76
2022/04/14 01:28:11;;;;;;;9.77;6.20;;;;;;;;;;5008066;28;20180;-74
2022/04/14 01:30:37;;;;;;;7.87;5.87;;;;;;;;;;5008776;28;20183;-75
2022/04/14 01:33:03;;;;;;;9.95;6.28;;;;;;;;;;5009810;28;20449;-77
2022/04/14 01:35:29;;;;;;;10.33;6.70;;;;;;;;;;5011499;28;20215;-74
2022/04/14 01:37:55;;;;;;;9.50;5.77;;;;;;;;;;5006927;28;20190;-74
2022/04/14 01:40:22;;;;;;;7.13;5.10;;;;;;;;;;5006470;28;20541;-74
2022/04/14 01:42:48;;;;;;;7.77;5.70;;;;;;;;;;4994455;28;20211;-74
2022/04/14 01:45:15;;;;;;;10.07;5.87;;;;;;;;;;5003212;28;20203;-74
2022/04/14 01:47:45;;;;;;;8.47;5.70;;;;;;;;;;5009169;28;20176;-74
2022/04/14 01:50:12;;;;;;;9.70;5.97;;;;;;;;;;4994037;28;20198;-74
2022/04/14 01:52:39;;;;;;;6.73;5.30;;;;;;;;;;5022579;28;20647;-74
2022/04/14 01:55:06;;;;;;;7.23;5.20;;;;;;;;;;5007864;28;20195;-74
2022/04/14 01:57:32;;;;;;;11.50;6.30;;;;;;;;;;5012094;28;20198;-74
2022/04/14 02:00:00;;;;;;;10.27;6.23;;;;;;;;;;5010980;28;20179;-74
2022/04/14 02:02:26;;;;;;;9.87;5.07;;;;;;;;;;5009219;28;20298;-74
2022/04/14 02:04:53;;;;;;;8.33;5.77;;;;;;;;;;5010420;28;20179;-74
2022/04/14 02:07:19;;;;;;;10.33;5.83;;;;;;;;;;5010181;28;20635;-74
2022/04/14 02:09:45;;;;;;;10.30;5.67;;;;;;;;;;5005695;28;20202;-74
2022/04/14 02:12:12;;;;;;;9.97;6.07;;;;;;;;;;5009819;28;20180;-74
2022/04/14 02:14:39;;;;;;;8.37;5.70;;;;;;;;;;5009985;28;20278;-74
2022/04/14 02:17:06;;;;;;;7.50;5.10;;;;;;;;;;5010835;28;20218;-74
2022/04/14 02:19:32;;;;;;;6.47;4.90;;;;;;;;;;5013424;28;20199;-74
2022/04/14 02:21:58;;;;;;;10.17;6.17;;;;;;;;;;5014301;28;20264;-74
2022/04/14 02:24:25;;;;;;;7.87;6.10;;;;;;;;;;5008606;28;20191;-74
2022/04/14 02:26:51;;;;;;;14.40;7.03;;;;;;;;;;5012392;28;20273;-74
2022/04/14 02:29:18;;;;;;;9.53;6.90;;;;;;;;;;5035136;28;20182;-74
2022/04/14 02:31:44;;;;;;;9.83;7.10;;;;;;;;;;5024430;28;20218;-74
2022/04/14 02:34:10;;;;;;;8.53;6.13;;;;;;;;;;5015653;28;20211;-74
2022/04/14 02:36:36;;;;;;;9.97;7.23;;;;;;;;;;5014008;28;20369;-74
2022/04/14 02:39:02;;;;;;;10.63;6.80;;;;;;;;;;5014322;28;20233;-74
2022/04/14 02:41:28;;;;;;;9.77;7.00;;;;;;;;;;5015016;28;20242;-74
2022/04/14 02:43:54;;;;;;;9.50;6.57;;;;;;;;;;5022455;28;20247;-74
2022/04/14 02:46:21;;;;;;;7.47;6.23;;;;;;;;;;5029049;28;20203;-74
2022/04/14 02:48:47;;;;;;;10.53;7.30;;;;;;;;;;5006422;28;20179;-74
2022/04/14 02:51:13;;;;;;;7.67;6.70;;;;;;;;;;5015024;28;20183;-74
2022/04/14 02:53:39;;;;;;;10.53;7.10;;;;;;;;;;5010264;28;20195;-74
2022/04/14 02:56:05;;;;;;;8.13;4.90;;;;;;;;;;5013949;28;20667;-74
2022/04/14 02:58:32;;;;;;;10.83;6.13;;;;;;;;;;5011251;28;20183;-74
2022/04/14 03:00:58;;;;;;;10.43;6.47;;;;;;;;;;5007632;28;20210;-74
2022/04/14 03:03:26;;;;;;;14.40;6.70;;;;;;;;;;5004765;28;20176;-74
2022/04/14 03:05:52;;;;;;;11.37;7.30;;;;;;;;;;5011162;28;20195;-74
2022/04/14 03:08:19;;;;;;;11.03;7.03;;;;;;;;;;5012993;28;20183;-74
2022/04/14 03:10:45;;;;;;;8.97;5.90;;;;;;;;;;5010411;28;20202;-74
2022/04/14 03:13:11;;;;;;;8.30;5.60;;;;;;;;;;5013946;28;20174;-74
2022/04/14 03:15:37;;;;;;;9.20;5.87;;;;;;;;;;5014627;28;20203;-74
2022/04/14 03:18:05;;;;;;;12.90;6.53;;;;;;;;;;5014872;28;20267;-74
2022/04/14 03:20:32;;;;;;;10.97;6.17;;;;;;;;;;5013802;28;20309;-74
2022/04/14 03:22:58;;;;;;;11.00;6.57;;;;;;;;;;5013473;28;20207;-74
2022/04/14 03:25:24;;;;;;;10.60;6.57;;;;;;;;;;5013948;28;20617;-74
2022/04/14 03:27:51;;;;;;;6.47;5.20;;;;;;;;;;5014212;28;20190;-74
2022/04/14 03:30:17;;;;;;;12.13;7.90;;;;;;;;;;5013683;28;20176;-74
2022/04/14 03:32:44;;;;;;;8.27;6.43;;;;;;;;;;5005587;28;20183;-75
2022/04/14 03:35:11;;;;;;;11.00;7.57;;;;;;;;;;4991317;28;20191;-74
2022/04/14 03:37:37;;;;;;;10.23;7.63;;;;;;;;;;5013489;28;20565;-74
2022/04/14 03:40:04;;;;;;;10.23;7.23;;;;;;;;;;5013172;28;20183;-74
2022/04/14 03:42:30;;;;;;;13.47;8.93;;;;;;;;;;4989429;28;20241;-74
2022/04/14 03:44:58;;;;;;;14.87;9.20;;;;;;;;;;5013547;28;20639;-74
2022/04/14 03:47:25;;;;;;;8.67;7.50;;;;;;;;;;5010086;28;20182;-74
2022/04/14 03:49:51;;;;;;;11.80;8.10;;;;;;;;;;5013448;28;20187;-74
2022/04/14 03:52:17;;;;;;;11.77;8.77;;;;;;;;;;5012426;28;20179;-74
2022/04/14 03:54:44;;;;;;;12.00;7.80;;;;;;;;;;5012428;28;20199;-74
2022/04/14 03:57:10;;;;;;;13.47;9.13;;;;;;;;;;5010424;28;20253;-74
2022/04/14 03:59:37;;;;;;;14.53;9.60;;;;;;;;;;5005694;28;20329;-74
2022/04/14 04:02:03;;;;;;;12.67;8.47;;;;;;;;;;5011323;28;20203;-74
2022/04/14 04:04:31;;;;;;;9.73;8.33;;;;;;;;;;5010758;28;20187;-74
2022/04/14 04:06:57;;;;;;;11.07;8.50;;;;;;;;;;5012157;28;20225;-74
2022/04/14 04:09:23;;;;;;;11.80;9.07;;;;;;;;;;5009647;28;20278;-74
2022/04/14 04:11:50;;;;;;;11.10;8.50;;;;;;;;;;5016041;28;20689;-74
2022/04/14 04:14:16;;;;;;;14.90;10.80;;;;;;;;;;5008936;28;20198;-74
2022/04/14 04:16:43;;;;;;;14.13;10.50;;;;;;;;;;5012879;28;20211;-74
2022/04/14 04:19:09;;;;;;;13.33;10.00;;;;;;;;;;5010528;28;20179;-74
2022/04/14 04:21:35;;;;;;;10.30;8.43;;;;;;;;;;5009107;28;20196;-74
2022/04/14 04:24:02;;;;;;;13.70;9.40;;;;;;;;;;4996603;28;20171;-74
2022/04/14 04:26:28;;;;;;;18.23;10.20;;;;;;;;;;5012578;28;20651;-74
2022/04/14 04:28:54;;;;;;;14.00;11.80;;;;;;;;;;5012382;28;20175;-75
2022/04/14 04:31:20;;;;;;;16.87;11.17;;;;;;;;;;5012026;28;20183;-75
2022/04/14 04:33:51;;;;;;;13.70;11.60;;;;;;;;;;5009931;28;20230;-75
2022/04/14 04:36:19;;;;;;;14.83;11.03;;;;;;;;;;5007072;28;20207;-75
2022/04/14 04:38:46;;;;;;;14.70;11.87;;;;;;;;;;5011995;28;20183;-75
2022/04/14 04:41:12;;;;;;;14.60;11.23;;;;;;;;;;5012481;28;20206;-75
2022/04/14 04:43:38;;;;;;;14.87;11.73;;;;;;;;;;5011794;28;20184;-75
2022/04/14 04:46:05;;;;;;;15.17;11.90;;;;;;;;;;4993086;28;20231;-75
2022/04/14 04:48:31;;;;;;;15.53;11.70;;;;;;;;;;5012240;28;20191;-75
2022/04/14 04:50:57;;;;;;;16.47;12.83;;;;;;;;;;5012036;28;20720;-75
2022/04/14 04:53:23;;;;;;;14.43;11.70;;;;;;;;;;5012341;28;20183;-75
2022/04/14 04:55:49;;;;;;;18.10;11.17;;;;;;;;;;5011580;28;20211;-75
2022/04/14 04:58:15;;;;;;;16.70;12.17;;;;;;;;;;5012087;28;20194;-75
2022/04/14 05:00:43;;;;;;;16.73;11.37;;;;;;;;;;5012521;28;20922;-75
2022/04/14 05:03:10;;;;;;;20.70;13.97;;;;;;;;;;5008348;28;20176;-75
2022/04/14 05:05:37;;;;;;;16.57;13.93;;;;;;;;;;5006896;28;20330;-75
2022/04/14 05:08:05;;;;;;;17.17;13.07;;;;;;;;;;5009769;28;20637;-75
2022/04/14 05:10:33;;;;;;;15.10;10.60;;;;;;;;;;5003693;28;20686;-77
2022/04/14 05:12:59;;;;;;;16.27;12.43;;;;;;;;;;5010465;28;20583;-76
2022/04/14 05:15:25;;;;;;;13.70;11.60;;;;;;;;;;5011657;28;20655;-75
2022/04/14 05:17:51;;;;;;;15.97;11.70;;;;;;;;;;5006485;28;20242;-76
2022/04/14 05:20:18;;;;;;;14.63;12.60;;;;;;;;;;5011133;28;20180;-75
2022/04/14 05:22:44;;;;;;;16.50;13.13;;;;;;;;;;5006343;28;20657;-77
2022/04/14 05:25:10;;;;;;;16.33;12.97;;;;;;;;;;5011305;28;20271;-76
2022/04/14 05:27:36;;;;;;;16.60;13.47;;;;;;;;;;5011477;28;20267;-75
2022/04/14 05:30:03;;;;;;;20.37;14.80;;;;;;;;;;5007120;28;20971;-77
2022/04/14 05:32:29;;;;;;;21.47;14.90;;;;;;;;;;5010658;28;20186;-76
2022/04/14 05:34:55;;;;;;;18.77;14.00;;;;;;;;;;5014959;28;20183;-83
2022/04/14 05:37:21;;;;;;;16.80;13.47;;;;;;;;;;5016027;28;20675;-79
2022/04/14 05:39:47;;;;;;;18.87;12.83;;;;;;;;;;5008515;28;20213;-78
2022/04/14 05:42:13;;;;;;;20.43;14.90;;;;;;;;;;5021141;28;20209;-78
2022/04/14 05:44:40;;;;;;;15.00;12.77;;;;;;;;;;5020668;28;20180;-79
2022/04/14 05:47:06;;;;;;;17.87;13.60;;;;;;;;;;5016807;28;20206;-79
2022/04/14 05:49:32;;;;;;;16.63;12.27;;;;;;;;;;5021692;28;20175;-79
2022/04/14 05:51:59;;;;;;;20.13;15.10;;;;;;;;;;5022055;28;20183;-79
2022/04/14 05:54:25;;;;;;;16.27;13.00;;;;;;;;;;5022536;28;20194;-79
2022/04/14 05:56:51;;;;;;;19.27;15.17;;;;;;;;;;5023618;28;20211;-79
2022/04/14 05:59:17;;;;;;;22.87;14.93;;;;;;;;;;5012107;28;20198;-79
2022/04/14 06:01:44;;;;;;;17.70;13.87;;;;;;;;;;5020119;28;20207;-79
2022/04/14 06:04:11;;;;;;;16.70;14.03;;;;;;;;;;5022361;28;20222;-79
2022/04/14 06:06:37;;;;;;;18.33;15.20;;;;;;;;;;5024718;28;20198;-79
2022/04/14 06:09:03;;;;;;;16.17;13.47;;;;;;;;;;5008163;28;20195;-79
2022/04/14 06:11:29;;;;;;;20.00;16.03;;;;;;;;;;5019654;28;20194;-79
2022/04/14 06:13:55;;;;;;;19.67;15.50;;;;;;;;;;5021139;28;20265;-79
2022/04/14 06:16:22;;;;;;;21.90;17.30;;;;;;;;;;5021167;28;20683;-80
2022/04/14 06:18:48;;;;;;;17.93;14.10;;;;;;;;;;5005128;28;20210;-81
2022/04/14 06:21:14;;;;;;;21.87;15.63;;;;;;;;;;5029114;28;20223;-79
2022/04/14 06:23:41;;;;;;;18.13;15.23;;;;;;;;;;5021363;28;20561;-79
2022/04/14 06:26:07;;;;;;;17.80;14.70;;;;;;;;;;5019019;28;20199;-78
2022/04/14 06:28:34;;;;;;;18.40;14.17;;;;;;;;;;5015624;28;20191;-78
2022/04/14 06:31:01;;;;;;;16.40;12.80;;;;;;;;;;5014907;28;20221;-78
2022/04/14 06:33:30;;;;;;;18.67;14.00;;;;;;;;;;5023727;28;20553;-79
2022/04/14 06:35:59;;;;;;;18.60;16.60;;;;;;;;;;5014290;28;20203;-79
2022/04/14 06:38:27;;;;;;;18.50;14.10;;;;;;;;;;5022039;28;20179;-79
2022/04/14 06:40:53;;;;;;;20.00;15.50;;;;;;;;;;5014253;28;20238;-78
2022/04/14 06:43:20;;;;;;;17.50;14.87;;;;;;;;;;5012733;28;20182;-79
2022/04/14 06:45:47;;;;;;;23.33;16.00;;;;;;;;;;5012185;28;20210;-79
2022/04/14 06:48:14;;;;;;;19.80;16.33;;;;;;;;;;5013348;28;20254;-79
2022/04/14 06:50:41;;;;;;;21.77;16.03;;;;;;;;;;5012618;28;20179;-79
2022/04/14 06:53:07;;;;;;;18.47;15.03;;;;;;;;;;5015085;28;20179;-79
2022/04/14 06:55:35;;;;;;;20.13;15.77;;;;;;;;;;5016027;28;20402;-79
2022/04/14 06:58:02;;;;;;;16.43;14.73;;;;;;;;;;5009537;28;20195;-79
2022/04/14 07:00:28;;;;;;;21.97;15.30;;;;;;;;;;5015069;28;20623;-79
2022/04/14 07:02:55;;;;;;;16.63;14.40;;;;;;;;;;5015063;28;20225;-79
2022/04/14 07:05:22;;;;;;;21.63;15.63;;;;;;;;;;5030403;28;20206;-79
2022/04/14 07:07:49;;;;;;;19.00;15.10;;;;;;;;;;5015942;28;20167;-79
2022/04/14 07:10:15;;;;;;;19.93;15.97;;;;;;;;;;5014789;28;20196;-79
2022/04/14 07:12:42;;;;;;;18.27;16.07;;;;;;;;;;5019462;28;20198;-79
2022/04/14 07:15:09;;;;;;;22.53;16.07;;;;;;;;;;5014375;28;20198;-79
2022/04/14 07:17:36;;;;;;;17.30;14.90;;;;;;;;;;5014390;28;20191;-79
2022/04/14 07:20:03;;;;;;;17.60;14.87;;;;;;;;;;4996086;28;20180;-76
2022/04/14 07:22:50;;;;;;;17.60;14.60;;;;;;;;;;5008608;28;20207;-83
2022/04/14 07:25:17;;;;;;;19.43;16.20;;;;;;;;;;4983244;28;20210;-84
2022/04/14 07:27:44;;;;;;;17.37;14.57;;;;;;;;;;5000401;28;20179;-79
2022/04/14 07:30:11;;;;;;;19.27;16.67;;;;;;;;;;5015324;28;20179;-79
2022/04/14 07:32:39;;;;;;;18.07;15.40;;;;;;;;;;5021131;28;20266;-78
2022/04/14 07:35:08;;;;;;;17.47;15.40;;;;;;;;;;5017057;28;20180;-79
2022/04/14 07:37:36;;;;;;;16.70;13.60;;;;;;;;;;5022014;28;20245;-79
2022/04/14 07:40:02;;;;;;;18.07;14.63;;;;;;;;;;5011831;28;20572;-80
2022/04/14 07:42:32;;;;;;;17.33;14.30;;;;;;;;;;5018044;28;20211;-81
2022/04/14 07:44:58;;;;;;;22.13;17.13;;;;;;;;;;5012210;28;20542;-80
2022/04/14 07:47:25;;;;;;;17.10;14.70;;;;;;;;;;5012432;28;20186;-80
2022/04/14 07:49:51;;;;;;;22.30;15.30;;;;;;;;;;5014621;28;20631;-80
2022/04/14 07:52:17;;;;;;;20.60;16.43;;;;;;;;;;5014654;28;20171;-80
2022/04/14 07:54:44;;;;;;;19.67;16.20;;;;;;;;;;5020934;28;20266;-80
2022/04/14 07:57:11;;;;;;;19.73;16.13;;;;;;;;;;5013207;28;20244;-81
2022/04/14 07:59:37;;;;;;;27.27;17.83;;;;;;;;;;4996097;28;20223;-80
2022/04/14 08:02:03;;;;;;;20.67;17.03;;;;;;;;;;5013995;28;20217;-79
2022/04/14 08:04:33;;;;;;;22.17;17.77;;;;;;;;;;4995714;28;20203;-80
2022/04/14 08:06:59;;;;;;;21.67;17.83;;;;;;;;;;5029683;28;20199;-80
2022/04/14 08:09:25;;;;;;;21.70;18.33;;;;;;;;;;5009832;28;20586;-80
2022/04/14 08:11:51;;;;;;;23.10;19.00;;;;;;;;;;5013627;28;20651;-80
2022/04/14 08:14:18;;;;;;;20.90;18.70;;;;;;;;;;5014644;28;20183;-81
2022/04/14 08:16:44;;;;;;;24.60;20.37;;;;;;;;;;5014481;28;20207;-80
2022/04/14 08:19:10;;;;;;;23.10;18.73;;;;;;;;;;5015292;28;20191;-78
2022/04/14 08:21:36;;;;;;;22.60;18.93;;;;;;;;;;5020209;28;20306;-80
2022/04/14 08:24:02;;;;;;;22.23;18.07;;;;;;;;;;5018742;28;20651;-79
2022/04/14 08:26:28;;;;;;;21.63;17.87;;;;;;;;;;5019433;28;20253;-78
2022/04/14 08:28:56;;;;;;;20.73;17.90;;;;;;;;;;5013712;28;20179;-77
2022/04/14 08:31:22;;;;;;;22.03;18.13;;;;;;;;;;5007648;28;20595;-77
2022/04/14 08:33:50;;;;;;;22.40;18.00;;;;;;;;;;5012167;28;20198;-79
2022/04/14 08:36:16;;;;;;;20.27;17.63;;;;;;;;;;5010504;28;20287;-80
2022/04/14 08:38:44;;;;;;;20.73;17.80;;;;;;;;;;5012496;28;20235;-80
2022/04/14 08:41:11;;;;;;;21.47;18.80;;;;;;;;;;5007846;28;20183;-80
2022/04/14 08:43:39;;;;;;;24.20;18.57;;;;;;;;;;5014200;28;20274;-80
2022/04/14 08:46:06;;;;;;;23.37;20.37;;;;;;;;;;5014060;28;20203;-80
2022/04/14 08:48:33;;;;;;;20.97;18.57;;;;;;;;;;5013975;28;20180;-80
2022/04/14 08:51:00;;;;;;;22.50;18.87;;;;;;;;;;5009765;28;20713;-80
2022/04/14 08:53:27;;;;;;;23.13;17.27;;;;;;;;;;5013045;28;20183;-80
2022/04/14 08:55:54;;;;;;;21.77;19.40;;;;;;;;;;5014826;28;20199;-80
2022/04/14 08:58:26;;;;;;;23.80;18.50;;;;;;;;;;5014953;28;20558;-80
2022/04/14 09:00:53;;;;;;;22.03;18.20;;;;;;;;;;5012560;28;20245;-79
2022/04/14 09:03:20;;;;;;;23.53;19.20;;;;;;;;;;5009615;28;20203;-79
2022/04/14 09:05:46;;;;;;;24.90;20.60;;;;;;;;;;5009208;28;20287;-80
2022/04/14 09:08:13;;;;;;;23.13;20.33;;;;;;;;;;5020582;28;20195;-79
2022/04/14 09:10:40;;;;;;;25.90;20.67;;;17.00;58.90;;;;;;5007207;28;20264;-76
2022/04/14 09:13:05;;;;;;;24.30;19.93;;;19.10;88.60;;;;;;5016542;28;20186;-79
2022/04/14 09:15:31;;;;;;;23.70;20.00;;;19.10;88.90;;;;;;4995659;28;20199;-80
2022/04/14 09:17:57;;;;;;;25.03;19.67;;;19.10;89.40;;;;;;4998178;28;20518;-80
2022/04/14 09:20:34;;;;;;;21.67;18.93;;;19.20;88.00;;;;;;5010507;28;20176;-80
2022/04/14 09:23:25;;;;;;;22.70;19.17;;;19.40;85.50;;;;;;5008029;28;20237;-80
2022/04/14 09:26:13;;;;;;;24.87;19.73;;;19.40;84.20;;;;;;5009586;28;20838;-81
2022/04/14 09:28:40;;;;;;;20.20;18.00;;;19.40;83.50;;;;;;5011306;28;20868;-80
2022/04/14 09:31:12;;;;;;;19.90;16.27;;;19.40;86.50;;;;;;5005888;28;20639;-80
2022/04/14 09:33:48;;;;;;;22.63;17.80;;;19.60;86.90;;;;;;5011139;28;20191;-83
2022/04/14 09:36:20;;;;;;;20.43;18.33;;;19.50;85.40;;;;;;5007827;28;20253;-81
2022/04/14 09:38:57;;;;;;;25.07;19.20;;;19.30;85.60;;;;;;4994180;28;20185;-80
2022/04/14 09:41:40;;;;;;;26.70;20.87;;;19.20;87.80;;;;;;5024677;28;20206;-81
2022/04/14 09:44:08;;;;;;;24.23;19.10;;;19.00;89.70;;;;;;5010319;28;20888;-80
2022/04/14 09:46:38;;;;;;;25.87;19.17;;;18.90;90.70;;;;;;5008727;28;20687;-81
2022/04/14 09:49:12;;;;;;;24.17;18.83;;;18.70;92.10;;;;;;5009170;28;20193;-80
2022/04/14 09:51:45;;;;;;;23.40;19.63;;;18.60;93.00;;;;;;5012746;28;20187;-80
2022/04/14 09:54:17;;;;;;;22.70;19.23;;;18.50;93.60;;;;;;5020164;28;20562;-80
2022/04/14 09:56:51;;;;;;;21.47;18.33;;;18.50;94.30;;;;;;5009715;28;20217;-80
2022/04/14 09:59:20;;;;;;;20.70;17.83;;;18.60;94.30;;;;;;5010140;28;20206;-80
2022/04/14 10:01:47;;;;;;;20.50;17.47;;;18.70;93.70;;;;;;5006271;28;20203;-81
2022/04/14 10:04:36;;;;;;;20.93;17.37;;;18.90;93.30;;;;;;5000541;28;20183;-81
2022/04/14 10:07:14;;;;;;;20.27;16.37;;;19.10;91.90;;;;;;5031295;28;20207;-81
2022/04/14 10:09:42;;;;;;;21.33;16.97;;;19.20;90.50;;;;;;5014577;28;20202;-80
2022/04/14 10:12:19;;;;;;;18.33;16.20;;;19.30;88.80;;;;;;5016365;28;20195;-80
2022/04/14 10:15:04;;;;;;;20.40;17.53;;;19.30;88.00;;;;;;4996686;28;20675;-80
2022/04/14 10:17:33;;;;;;;22.60;17.47;;;19.40;85.80;;;;;;5015459;28;20183;-81
2022/04/14 10:19:59;;;;;;;19.53;16.67;;;19.40;84.50;;;;;;5012711;28;20214;-84
2022/04/14 10:22:26;;;;;;;18.77;15.80;;;19.50;83.80;;;;;;4989937;28;20796;-83
2022/04/14 10:24:53;;;;;;;21.87;17.70;;;19.70;84.90;;;;;;4979896;28;20188;-84
2022/04/14 10:27:20;;;;;;;23.10;17.07;;;19.90;80.90;;;;;;5011153;28;20199;-83
2022/04/14 10:29:47;;;;;;;20.93;18.40;;;19.90;78.80;;;;;;5013037;28;20556;-83
2022/04/14 10:32:14;;;;;;;19.93;16.60;;;19.80;78.00;;;;;;5018120;28;20403;-83
2022/04/14 10:34:41;;;;;;;20.03;16.73;;;19.90;78.00;;;;;;5015528;28;20270;-84
2022/04/14 10:37:16;;;;;;;19.93;16.43;;;19.90;77.70;;;;;;5011972;28;20228;-84
2022/04/14 10:39:48;;;;;;;18.30;15.97;;;20.00;76.20;;;;;;4997313;28;20191;-84
2022/04/14 10:42:21;;;;;;;20.50;15.40;;;20.10;77.00;;;;;;5002960;28;20203;-84
2022/04/14 10:44:51;;;;;;;16.37;14.67;;;20.20;73.10;;;;;;5018204;28;20183;-84
2022/04/14 10:47:57;;;;;;;21.40;16.13;;;20.40;72.60;;;;;;5015241;28;20245;-81
2022/04/14 10:50:32;;;;;;;16.83;13.67;;;20.70;70.60;;;;;;4996184;28;20268;-81
2022/04/14 10:53:17;;;;;;;17.30;12.97;;;21.00;69.40;;;;;;5019061;28;20191;-81
2022/04/14 10:55:45;;;;;;;14.80;13.20;;;21.10;67.50;;;;;;5010908;28;20211;-81
2022/04/14 10:58:29;;;;;;;18.47;14.03;;;21.10;65.00;;;;;;5010177;28;20851;-82
2022/04/14 11:00:56;;;;;;;17.77;12.10;;;21.00;65.10;;;;;;5016627;28;20326;-81
2022/04/14 11:03:45;;;;;;;16.47;13.07;;;21.20;65.70;;;;;;5015977;28;20191;-82
2022/04/14 11:06:40;;;;;;;14.60;11.47;;;21.50;64.50;;;;;;4996122;28;20271;-82
2022/04/14 11:09:07;;;;;;;15.23;12.97;;;21.60;62.50;;;;;;5003789;28;20184;-81
2022/04/14 11:11:59;;;;;;;14.50;12.20;;;21.70;62.90;;;;;;5000920;28;20207;-82
2022/04/14 11:14:25;;;;;;;15.77;12.87;;;21.60;61.30;;;;;;5004352;28;20187;-82
2022/04/14 11:16:52;;;;;;;13.57;11.50;;;21.70;61.50;;;;;;5018057;28;20210;-81
2022/04/14 11:19:22;;;;;;;13.73;10.83;;;21.70;60.80;;;;;;4998037;28;20188;-82
2022/04/14 11:22:09;;;;;;;16.23;11.50;;;21.90;60.00;;;;;;5012747;28;20215;-81
2022/04/14 11:24:42;;;;;;;14.53;11.67;;;22.00;59.10;;;;;;5021993;28;20190;-82
2022/04/14 11:27:09;;;;;;;15.97;10.47;;;22.20;58.60;;;;;;5025311;28;20199;-82
2022/04/14 11:29:35;;;;;;;12.40;10.90;;;22.30;58.70;;;;;;5008569;28;20207;-82
2022/04/14 11:32:01;;;;;;;15.13;11.60;;;22.40;57.90;;;;;;5012554;28;20218;-82
2022/04/14 11:34:37;;;;;;;13.83;11.07;;;22.50;58.00;;;;;;5006862;28;20260;-82
2022/04/14 11:37:23;;;;;;;10.93;9.50;;;22.60;57.30;;;;;;5044934;28;20205;-82
2022/04/14 11:40:27;;;;;;;13.17;11.13;;;22.80;57.80;;;;;;4998468;28;20214;-82
2022/04/14 11:42:55;;;;;;;12.53;10.37;;;22.90;56.20;;;;;;5030937;28;20579;-82
2022/04/14 11:45:22;;;;;;;10.77;9.07;;;22.90;56.10;;;;;;5006066;28;20202;-82
2022/04/14 11:47:49;;;;;;;14.57;9.97;;;23.20;56.60;;;;;;5017124;28;20184;-82
2022/04/14 11:50:23;;;;;;;11.10;9.63;;;23.60;55.60;;;;;;5018556;28;20207;-81
2022/04/14 11:52:55;;;;;;;12.07;10.17;;;23.90;55.10;;;;;;5019217;28;20188;-82
2022/04/14 11:55:33;;;;;;;12.93;11.27;;;24.40;53.80;;;;;;5034688;28;20208;-82
2022/04/14 11:58:03;;;;;;;11.93;10.17;;;24.20;53.10;;;;;;5020696;28;20278;-80
2022/04/14 12:00:29;;;;;;;15.27;10.03;;;24.20;53.50;;;;;;5009869;28;20219;-80
2022/04/14 12:02:57;;;;;;;12.10;9.33;;;24.40;52.80;;;;;;5014670;28;20584;-80
2022/04/14 12:05:23;;;;;;;12.10;9.70;;;24.50;52.80;;;;;;5013845;28;20226;-80
2022/04/14 12:08:04;;;;;;;12.47;9.60;;;24.60;52.30;;;;;;5017194;28;20174;-80
2022/04/14 12:10:29;;;;;;;13.07;9.40;;;24.70;51.80;;;;;;4996575;28;20200;-80
2022/04/14 12:13:09;;;;;;;10.47;8.33;;;24.70;52.10;;;;;;5004558;28;20604;-80
2022/04/14 12:15:35;;;;;;;11.57;10.17;;;24.90;51.40;;;;;;5002447;28;20575;-80
2022/04/14 12:18:08;;;;;;;10.73;8.93;;;25.10;50.80;;;;;;5015097;28;20214;-80
2022/04/14 12:20:40;;;;;;;11.40;8.70;;;25.20;50.60;;;;;;5014933;28;20187;-80
2022/04/14 12:23:12;;;;;;;10.43;8.30;;;25.40;50.40;;;;;;4993742;28;20245;-80
2022/04/14 12:25:41;;;;;;;11.00;7.17;;;25.80;50.00;;;;;;5001660;28;20561;-80
2022/04/14 12:28:07;;;;;;;11.37;7.80;;;25.90;49.60;;;;;;5009230;28;20171;-80
2022/04/14 12:30:34;;;;;;;8.03;6.67;;;25.80;48.60;;;;;;4995557;28;20188;-80
2022/04/14 12:33:04;;;;;;;11.33;7.47;;;25.90;48.70;;;;;;4997205;28;20190;-79
2022/04/14 12:35:36;;;;;;;9.13;6.40;;;25.80;48.70;;;;;;5013044;28;20195;-80
2022/04/14 12:38:19;;;;;;;8.40;6.00;;;25.80;48.80;;;;;;5012940;28;20222;-80
2022/04/14 12:40:56;;;;;;;9.30;6.53;;;25.90;48.40;;;;;;5014007;28;20628;-80
2022/04/14 12:43:44;;;;;;;8.07;5.73;;;26.10;48.30;;;;;;5012738;28;20286;-80
2022/04/14 12:46:26;;;;;;;6.80;5.73;;;25.80;48.20;;;;;;5001351;28;20257;-80
2022/04/14 12:49:11;;;;;;;7.43;5.30;;;25.80;48.40;;;;;;5001093;28;20193;-80
2022/04/14 12:51:42;;;;;;;7.20;4.80;;;25.70;48.60;;;;;;5012609;28;20254;-80
2022/04/14 12:54:15;;;;;;;8.00;4.60;;;26.10;49.00;;;;;;5017909;28;20183;-80
2022/04/14 12:56:55;;;;;;;7.67;4.93;;;26.50;47.70;;;;;;4992885;28;20573;-80
2022/04/14 12:59:21;;;;;;;6.90;4.77;;;26.40;46.80;;;;;;5007670;28;20202;-80
2022/04/14 13:01:51;;;;;;;5.97;4.77;;;26.50;47.30;;;;;;5013095;28;20697;-80
2022/04/14 13:04:30;;;;;;;5.90;4.70;;;26.70;46.90;;;;;;4992233;28;20183;-82
2022/04/14 13:07:17;;;;;;;6.27;4.60;;;26.80;46.00;;;;;;5013884;28;20206;-79
2022/04/14 13:10:04;;;;;;;6.93;5.30;;;26.80;45.90;;;;;;5013225;28;20248;-80
2022/04/14 13:12:44;;;;;;;7.20;4.97;;;27.20;45.90;;;;;;5013574;28;20761;-80
2022/04/14 13:15:11;;;;;;;6.13;4.73;;;;;;;;;;4992558;28;20268;-79
2022/04/14 13:17:38;;;;;;;8.10;4.20;;;;;;;;;;4996193;28;20194;-79
2022/04/14 13:20:16;;;;;;;7.83;4.47;;;;;;;;;;5010760;28;20185;-79
2022/04/14 13:22:43;;;;;;;4.43;3.40;;;;;;;;;;5002020;28;20203;-79
2022/04/14 13:25:11;;;;;;;4.57;3.53;;;;;;;;;;5010380;28;20205;-79
2022/04/14 13:27:37;;;;;;;4.67;3.30;;;;;;;;;;5013307;28;20242;-79
2022/04/14 13:30:04;;;;;;;5.20;2.93;;;;;;;;;;5011283;28;20195;-79
2022/04/14 13:32:31;;;;;;;7.40;3.27;;;;;;;;;;4997467;28;20275;-80
2022/04/14 13:34:57;;;;;;;5.40;2.90;;;;;;;;;;5012963;28;20249;-79
2022/04/14 13:37:24;;;;;;;3.07;2.03;;;;;;;;;;5010369;28;20604;-78
2022/04/14 13:39:50;;;;;;;4.30;1.90;;;27.00;45.80;;;;;;5010042;28;20217;-80
2022/04/14 13:42:17;;;;;;;3.67;2.00;;;25.60;47.30;;;;;;5011188;28;20211;-79
2022/04/14 13:44:43;;;;;;;3.43;1.90;;;25.50;46.70;;;;;;5012724;28;20232;-80
2022/04/14 13:47:12;;;;;;;5.13;2.00;;;25.10;46.90;;;;;;5016309;28;20219;-79
2022/04/14 13:49:38;;;;;;;2.90;1.77;;;24.90;47.20;;;;;;5012913;28;20188;-83
2022/04/14 13:52:05;;;;;;;4.37;1.77;;;24.70;47.80;;;;;;5006874;28;20184;-78
2022/04/14 13:54:31;;;;;;;2.70;1.70;;;24.40;48.00;;;;;;4999705;28;20187;-79
2022/04/14 13:56:57;;;;;;;3.00;1.37;;;24.10;48.10;;;;;;5002602;28;20288;-78